sensor_id;sensor_type;location;lat;lon;timestamp;P1;durP1;ratioP1;P2;durP2;ratioP2
14007;SDS011;61651;45.508;12.232;2023-08-17T00:01:36;8.27;;;7.65;;
14007;SDS011;61651;45.508;12.232;2023-08-17T00:04:38;7.80;;;7.10;;
14007;SDS011;61651;45.508;12.232;2023-08-17T00:07:42;8.40;;;7.70;;
14007;SDS011;61651;45.508;12.232;2023-08-17T00:10:44;7.85;;;7.25;;
14007;SDS011;61651;45.508;12.232;2023-08-17T00:13:47;8.13;;;7.53;;
14007;SDS011;61651;45.508;12.232;2023-08-17T00:16:49;8.10;;;7.50;;
14007;SDS011;61651;45.508;12.232;2023-08-17T00:19:51;7.80;;;7.10;;
14007;SDS011;61651;45.508;12.232;2023-08-17T00:22:54;7.40;;;6.80;;
14007;SDS011;61651;45.508;12.232;2023-08-17T00:25:57;8.20;;;7.47;;
14007;SDS011;61651;45.508;12.232;2023-08-17T00:28:59;8.40;;;7.65;;
14007;SDS011;61651;45.508;12.232;2023-08-17T00:32:01;8.43;;;7.65;;
14007;SDS011;61651;45.508;12.232;2023-08-17T00:35:03;8.70;;;7.80;;
14007;SDS011;61651;45.508;12.232;2023-08-17T00:38:07;8.00;;;7.40;;
14007;SDS011;61651;45.508;12.232;2023-08-17T00:41:09;8.52;;;7.90;;
14007;SDS011;61651;45.508;12.232;2023-08-17T00:44:11;7.85;;;7.25;;
14007;SDS011;61651;45.508;12.232;2023-08-17T00:47:13;8.45;;;7.70;;
14007;SDS011;61651;45.508;12.232;2023-08-17T00:50:16;8.15;;;7.45;;
14007;SDS011;61651;45.508;12.232;2023-08-17T00:53:19;8.65;;;7.93;;
14007;SDS011;61651;45.508;12.232;2023-08-17T00:56:23;8.85;;;8.05;;
14007;SDS011;61651;45.508;12.232;2023-08-17T00:59:26;8.68;;;7.65;;
14007;SDS011;61651;45.508;12.232;2023-08-17T01:02:28;8.63;;;8.02;;
14007;SDS011;61651;45.508;12.232;2023-08-17T01:05:30;8.50;;;7.75;;
14007;SDS011;61651;45.508;12.232;2023-08-17T01:08:34;8.95;;;8.13;;
14007;SDS011;61651;45.508;12.232;2023-08-17T01:11:37;10.15;;;9.15;;
14007;SDS011;61651;45.508;12.232;2023-08-17T01:14:50;8.68;;;7.88;;
14007;SDS011;61651;45.508;12.232;2023-08-17T01:18:04;8.35;;;7.75;;
14007;SDS011;61651;45.508;12.232;2023-08-17T01:21:13;9.00;;;8.20;;
14007;SDS011;61651;45.508;12.232;2023-08-17T01:24:19;7.90;;;7.30;;
14007;SDS011;61651;45.508;12.232;2023-08-17T01:27:21;9.07;;;8.15;;
14007;SDS011;61651;45.508;12.232;2023-08-17T01:30:23;8.45;;;7.80;;
14007;SDS011;61651;45.508;12.232;2023-08-17T01:33:28;8.50;;;7.80;;
14007;SDS011;61651;45.508;12.232;2023-08-17T01:36:35;8.70;;;8.02;;
14007;SDS011;61651;45.508;12.232;2023-08-17T01:39:43;8.90;;;7.97;;
14007;SDS011;61651;45.508;12.232;2023-08-17T01:42:46;8.80;;;8.13;;
14007;SDS011;61651;45.508;12.232;2023-08-17T01:45:49;9.32;;;8.43;;
14007;SDS011;61651;45.508;12.232;2023-08-17T01:48:51;8.68;;;8.00;;
14007;SDS011;61651;45.508;12.232;2023-08-17T01:51:53;8.65;;;7.93;;
14007;SDS011;61651;45.508;12.232;2023-08-17T01:54:57;8.20;;;7.60;;
14007;SDS011;61651;45.508;12.232;2023-08-17T01:57:59;9.48;;;8.55;;
14007;SDS011;61651;45.508;12.232;2023-08-17T02:01:01;8.18;;;7.60;;
14007;SDS011;61651;45.508;12.232;2023-08-17T02:04:03;9.48;;;8.68;;
14007;SDS011;61651;45.508;12.232;2023-08-17T02:07:05;8.63;;;7.97;;
14007;SDS011;61651;45.508;12.232;2023-08-17T02:10:09;9.30;;;8.60;;
14007;SDS011;61651;45.508;12.232;2023-08-17T02:13:11;9.50;;;8.80;;
14007;SDS011;61651;45.508;12.232;2023-08-17T02:16:13;9.32;;;8.50;;
14007;SDS011;61651;45.508;12.232;2023-08-17T02:19:15;8.65;;;8.00;;
14007;SDS011;61651;45.508;12.232;2023-08-17T02:22:17;8.60;;;7.90;;
14007;SDS011;61651;45.508;12.232;2023-08-17T02:25:20;10.20;;;9.45;;
14007;SDS011;61651;45.508;12.232;2023-08-17T02:28:22;9.38;;;8.68;;
14007;SDS011;61651;45.508;12.232;2023-08-17T02:31:25;9.38;;;8.63;;
14007;SDS011;61651;45.508;12.232;2023-08-17T02:34:27;9.07;;;8.35;;
14007;SDS011;61651;45.508;12.232;2023-08-17T02:37:29;9.07;;;8.48;;
14007;SDS011;61651;45.508;12.232;2023-08-17T02:40:32;9.77;;;8.82;;
14007;SDS011;61651;45.508;12.232;2023-08-17T02:43:34;9.27;;;8.40;;
14007;SDS011;61651;45.508;12.232;2023-08-17T02:46:36;9.63;;;8.73;;
14007;SDS011;61651;45.508;12.232;2023-08-17T02:49:38;9.00;;;8.30;;
14007;SDS011;61651;45.508;12.232;2023-08-17T02:52:40;9.85;;;8.93;;
14007;SDS011;61651;45.508;12.232;2023-08-17T02:55:43;9.63;;;8.65;;
14007;SDS011;61651;45.508;12.232;2023-08-17T02:58:45;9.25;;;8.55;;
14007;SDS011;61651;45.508;12.232;2023-08-17T03:01:47;9.35;;;8.65;;
14007;SDS011;61651;45.508;12.232;2023-08-17T03:04:49;9.75;;;8.95;;
14007;SDS011;61651;45.508;12.232;2023-08-17T03:07:51;9.98;;;9.27;;
14007;SDS011;61651;45.508;12.232;2023-08-17T03:10:55;9.70;;;9.05;;
14007;SDS011;61651;45.508;12.232;2023-08-17T03:13:57;9.82;;;9.00;;
14007;SDS011;61651;45.508;12.232;2023-08-17T03:17:00;9.13;;;8.43;;
14007;SDS011;61651;45.508;12.232;2023-08-17T03:20:03;9.48;;;8.77;;
14007;SDS011;61651;45.508;12.232;2023-08-17T03:23:06;9.23;;;8.52;;
14007;SDS011;61651;45.508;12.232;2023-08-17T03:26:10;10.15;;;9.35;;
14007;SDS011;61651;45.508;12.232;2023-08-17T03:29:12;9.32;;;8.52;;
14007;SDS011;61651;45.508;12.232;2023-08-17T03:32:13;9.60;;;8.93;;
14007;SDS011;61651;45.508;12.232;2023-08-17T03:35:16;9.88;;;9.07;;
14007;SDS011;61651;45.508;12.232;2023-08-17T03:38:18;9.80;;;9.10;;
14007;SDS011;61651;45.508;12.232;2023-08-17T03:41:22;10.13;;;8.98;;
14007;SDS011;61651;45.508;12.232;2023-08-17T03:44:24;10.75;;;9.95;;
14007;SDS011;61651;45.508;12.232;2023-08-17T03:47:26;9.88;;;9.07;;
14007;SDS011;61651;45.508;12.232;2023-08-17T03:50:28;9.60;;;8.95;;
14007;SDS011;61651;45.508;12.232;2023-08-17T03:53:30;9.82;;;9.13;;
14007;SDS011;61651;45.508;12.232;2023-08-17T03:56:34;9.63;;;8.93;;
14007;SDS011;61651;45.508;12.232;2023-08-17T03:59:36;10.98;;;9.90;;
14007;SDS011;61651;45.508;12.232;2023-08-17T04:02:38;9.82;;;9.02;;
14007;SDS011;61651;45.508;12.232;2023-08-17T04:05:40;10.85;;;9.95;;
14007;SDS011;61651;45.508;12.232;2023-08-17T04:08:42;9.40;;;8.65;;
14007;SDS011;61651;45.508;12.232;2023-08-17T04:11:45;9.98;;;9.18;;
14007;SDS011;61651;45.508;12.232;2023-08-17T04:14:47;9.98;;;9.27;;
14007;SDS011;61651;45.508;12.232;2023-08-17T04:17:49;10.63;;;9.73;;
14007;SDS011;61651;45.508;12.232;2023-08-17T04:20:51;10.85;;;10.05;;
14007;SDS011;61651;45.508;12.232;2023-08-17T04:23:53;10.52;;;9.73;;
14007;SDS011;61651;45.508;12.232;2023-08-17T04:26:57;11.00;;;10.02;;
14007;SDS011;61651;45.508;12.232;2023-08-17T04:29:59;11.45;;;10.45;;
14007;SDS011;61651;45.508;12.232;2023-08-17T04:33:02;11.57;;;10.75;;
14007;SDS011;61651;45.508;12.232;2023-08-17T04:36:04;10.68;;;9.88;;
14007;SDS011;61651;45.508;12.232;2023-08-17T04:39:06;11.00;;;10.20;;
14007;SDS011;61651;45.508;12.232;2023-08-17T04:42:10;12.18;;;11.07;;
14007;SDS011;61651;45.508;12.232;2023-08-17T04:45:12;11.45;;;10.65;;
14007;SDS011;61651;45.508;12.232;2023-08-17T04:48:14;10.82;;;10.02;;
14007;SDS011;61651;45.508;12.232;2023-08-17T04:51:16;10.60;;;9.90;;
14007;SDS011;61651;45.508;12.232;2023-08-17T04:54:18;11.50;;;10.52;;
14007;SDS011;61651;45.508;12.232;2023-08-17T04:57:22;12.38;;;11.27;;
14007;SDS011;61651;45.508;12.232;2023-08-17T05:00:24;10.60;;;9.63;;
14007;SDS011;61651;45.508;12.232;2023-08-17T05:03:28;11.98;;;11.07;;
14007;SDS011;61651;45.508;12.232;2023-08-17T05:06:31;10.90;;;10.15;;
14007;SDS011;61651;45.508;12.232;2023-08-17T05:09:33;11.75;;;10.77;;
14007;SDS011;61651;45.508;12.232;2023-08-17T05:12:36;11.32;;;10.50;;
14007;SDS011;61651;45.508;12.232;2023-08-17T05:15:38;12.15;;;11.23;;
14007;SDS011;61651;45.508;12.232;2023-08-17T05:18:40;12.27;;;11.30;;
14007;SDS011;61651;45.508;12.232;2023-08-17T05:21:42;12.20;;;11.20;;
14007;SDS011;61651;45.508;12.232;2023-08-17T05:24:44;12.38;;;11.35;;
14007;SDS011;61651;45.508;12.232;2023-08-17T05:27:48;12.93;;;11.73;;
14007;SDS011;61651;45.508;12.232;2023-08-17T05:30:50;12.15;;;11.10;;
14007;SDS011;61651;45.508;12.232;2023-08-17T05:33:53;11.38;;;10.57;;
14007;SDS011;61651;45.508;12.232;2023-08-17T05:36:55;12.07;;;10.93;;
14007;SDS011;61651;45.508;12.232;2023-08-17T05:39:57;12.85;;;11.65;;
14007;SDS011;61651;45.508;12.232;2023-08-17T05:43:01;11.75;;;10.80;;
14007;SDS011;61651;45.508;12.232;2023-08-17T05:46:03;12.20;;;11.32;;
14007;SDS011;61651;45.508;12.232;2023-08-17T05:49:05;12.70;;;11.63;;
14007;SDS011;61651;45.508;12.232;2023-08-17T05:52:07;12.27;;;11.27;;
14007;SDS011;61651;45.508;12.232;2023-08-17T05:55:09;11.90;;;10.88;;
14007;SDS011;61651;45.508;12.232;2023-08-17T05:58:12;12.20;;;11.15;;
14007;SDS011;61651;45.508;12.232;2023-08-17T06:01:14;11.88;;;10.98;;
14007;SDS011;61651;45.508;12.232;2023-08-17T06:04:16;10.93;;;9.93;;
14007;SDS011;61651;45.508;12.232;2023-08-17T06:07:19;11.35;;;10.52;;
14007;SDS011;61651;45.508;12.232;2023-08-17T06:10:22;11.20;;;10.30;;
14007;SDS011;61651;45.508;12.232;2023-08-17T06:13:26;10.60;;;9.80;;
14007;SDS011;61651;45.508;12.232;2023-08-17T06:16:28;10.05;;;9.35;;
14007;SDS011;61651;45.508;12.232;2023-08-17T06:19:30;10.13;;;9.32;;
14007;SDS011;61651;45.508;12.232;2023-08-17T06:22:33;10.10;;;9.40;;
14007;SDS011;61651;45.508;12.232;2023-08-17T06:25:35;9.98;;;9.18;;
14007;SDS011;61651;45.508;12.232;2023-08-17T06:28:39;10.00;;;9.20;;
14007;SDS011;61651;45.508;12.232;2023-08-17T06:31:41;9.82;;;9.07;;
14007;SDS011;61651;45.508;12.232;2023-08-17T06:34:43;9.90;;;8.98;;
14007;SDS011;61651;45.508;12.232;2023-08-17T06:37:45;9.23;;;8.63;;
14007;SDS011;61651;45.508;12.232;2023-08-17T06:40:47;9.00;;;8.30;;
14007;SDS011;61651;45.508;12.232;2023-08-17T06:43:50;20.48;;;11.30;;
14007;SDS011;61651;45.508;12.232;2023-08-17T06:46:53;11.63;;;10.45;;
14007;SDS011;61651;45.508;12.232;2023-08-17T06:49:55;9.65;;;8.88;;
14007;SDS011;61651;45.508;12.232;2023-08-17T06:52:58;9.70;;;8.82;;
14007;SDS011;61651;45.508;12.232;2023-08-17T06:56:00;9.45;;;8.70;;
14007;SDS011;61651;45.508;12.232;2023-08-17T06:59:03;9.50;;;8.70;;
14007;SDS011;61651;45.508;12.232;2023-08-17T07:02:05;8.85;;;7.93;;
14007;SDS011;61651;45.508;12.232;2023-08-17T07:05:08;9.20;;;8.38;;
14007;SDS011;61651;45.508;12.232;2023-08-17T07:08:10;9.07;;;8.40;;
14007;SDS011;61651;45.508;12.232;2023-08-17T07:11:13;8.93;;;8.23;;
14007;SDS011;61651;45.508;12.232;2023-08-17T07:14:16;9.48;;;8.70;;
14007;SDS011;61651;45.508;12.232;2023-08-17T07:17:18;9.32;;;8.63;;
14007;SDS011;61651;45.508;12.232;2023-08-17T07:20:20;9.10;;;8.40;;
14007;SDS011;61651;45.508;12.232;2023-08-17T07:23:23;9.35;;;8.52;;
14007;SDS011;61651;45.508;12.232;2023-08-17T07:26:25;8.48;;;7.68;;
14007;SDS011;61651;45.508;12.232;2023-08-17T07:29:28;9.43;;;8.48;;
14007;SDS011;61651;45.508;12.232;2023-08-17T07:32:30;9.90;;;8.70;;
14007;SDS011;61651;45.508;12.232;2023-08-17T07:35:32;9.83;;;9.13;;
14007;SDS011;61651;45.508;12.232;2023-08-17T07:38:34;9.13;;;8.25;;
14007;SDS011;61651;45.508;12.232;2023-08-17T07:41:36;8.52;;;7.63;;
14007;SDS011;61651;45.508;12.232;2023-08-17T07:44:40;8.88;;;8.18;;
14007;SDS011;61651;45.508;12.232;2023-08-17T07:47:42;8.80;;;8.20;;
14007;SDS011;61651;45.508;12.232;2023-08-17T07:50:47;9.07;;;8.27;;
14007;SDS011;61651;45.508;12.232;2023-08-17T07:53:50;8.80;;;8.10;;
14007;SDS011;61651;45.508;12.232;2023-08-17T07:56:52;8.70;;;8.00;;
14007;SDS011;61651;45.508;12.232;2023-08-17T07:59:56;8.60;;;7.80;;
14007;SDS011;61651;45.508;12.232;2023-08-17T08:02:58;7.72;;;6.97;;
14007;SDS011;61651;45.508;12.232;2023-08-17T08:06:00;8.27;;;7.53;;
14007;SDS011;61651;45.508;12.232;2023-08-17T08:09:02;8.15;;;7.18;;
14007;SDS011;61651;45.508;12.232;2023-08-17T08:12:04;8.65;;;6.65;;
14007;SDS011;61651;45.508;12.232;2023-08-17T08:15:09;8.05;;;7.32;;
14007;SDS011;61651;45.508;12.232;2023-08-17T08:18:11;12.13;;;8.02;;
14007;SDS011;61651;45.508;12.232;2023-08-17T08:21:13;8.18;;;7.18;;
14007;SDS011;61651;45.508;12.232;2023-08-17T08:24:15;7.75;;;7.05;;
14007;SDS011;61651;45.508;12.232;2023-08-17T08:27:17;7.85;;;7.25;;
14007;SDS011;61651;45.508;12.232;2023-08-17T08:30:21;7.63;;;7.00;;
14007;SDS011;61651;45.508;12.232;2023-08-17T08:33:23;7.45;;;6.75;;
14007;SDS011;61651;45.508;12.232;2023-08-17T08:36:25;7.20;;;6.70;;
14007;SDS011;61651;45.508;12.232;2023-08-17T08:39:27;7.97;;;7.28;;
14007;SDS011;61651;45.508;12.232;2023-08-17T08:42:29;8.63;;;7.25;;
14007;SDS011;61651;45.508;12.232;2023-08-17T08:45:32;7.72;;;6.93;;
14007;SDS011;61651;45.508;12.232;2023-08-17T08:48:37;8.13;;;7.32;;
14007;SDS011;61651;45.508;12.232;2023-08-17T08:51:42;7.10;;;6.50;;
14007;SDS011;61651;45.508;12.232;2023-08-17T08:54:47;7.55;;;6.85;;
14007;SDS011;61651;45.508;12.232;2023-08-17T08:57:52;8.02;;;7.00;;
14007;SDS011;61651;45.508;12.232;2023-08-17T09:00:56;8.02;;;7.22;;
14007;SDS011;61651;45.508;12.232;2023-08-17T09:03:59;8.15;;;7.40;;
14007;SDS011;61651;45.508;12.232;2023-08-17T09:07:02;7.95;;;7.38;;
14007;SDS011;61651;45.508;12.232;2023-08-17T09:10:05;7.75;;;6.65;;
14007;SDS011;61651;45.508;12.232;2023-08-17T09:13:07;8.15;;;7.32;;
14007;SDS011;61651;45.508;12.232;2023-08-17T09:16:11;7.88;;;7.18;;
14007;SDS011;61651;45.508;12.232;2023-08-17T09:19:13;9.55;;;6.60;;
14007;SDS011;61651;45.508;12.232;2023-08-17T09:22:21;7.93;;;7.25;;
14007;SDS011;61651;45.508;12.232;2023-08-17T09:25:24;8.98;;;7.47;;
14007;SDS011;61651;45.508;12.232;2023-08-17T09:28:26;7.80;;;7.10;;
14007;SDS011;61651;45.508;12.232;2023-08-17T09:31:31;8.23;;;7.53;;
14007;SDS011;61651;45.508;12.232;2023-08-17T09:34:34;8.00;;;7.28;;
14007;SDS011;61651;45.508;12.232;2023-08-17T09:37:36;6.97;;;6.43;;
14007;SDS011;61651;45.508;12.232;2023-08-17T09:40:38;7.65;;;6.97;;
14007;SDS011;61651;45.508;12.232;2023-08-17T09:43:40;7.55;;;6.95;;
14007;SDS011;61651;45.508;12.232;2023-08-17T09:46:44;7.90;;;7.30;;
14007;SDS011;61651;45.508;12.232;2023-08-17T09:49:48;7.38;;;6.78;;
14007;SDS011;61651;45.508;12.232;2023-08-17T09:52:52;6.57;;;6.15;;
14007;SDS011;61651;45.508;12.232;2023-08-17T09:55:55;7.97;;;7.28;;
14007;SDS011;61651;45.508;12.232;2023-08-17T09:58:58;7.38;;;6.60;;
14007;SDS011;61651;45.508;12.232;2023-08-17T10:02:01;6.95;;;6.45;;
14007;SDS011;61651;45.508;12.232;2023-08-17T10:05:06;7.35;;;6.22;;
14007;SDS011;61651;45.508;12.232;2023-08-17T10:08:12;9.05;;;6.70;;
14007;SDS011;61651;45.508;12.232;2023-08-17T10:11:20;7.85;;;7.20;;
14007;SDS011;61651;45.508;12.232;2023-08-17T10:14:26;6.97;;;6.40;;
14007;SDS011;61651;45.508;12.232;2023-08-17T10:17:44;6.65;;;5.95;;
14007;SDS011;61651;45.508;12.232;2023-08-17T10:20:54;7.13;;;6.43;;
14007;SDS011;61651;45.508;12.232;2023-08-17T10:24:02;5.97;;;5.47;;
14007;SDS011;61651;45.508;12.232;2023-08-17T10:27:05;6.97;;;6.40;;
14007;SDS011;61651;45.508;12.232;2023-08-17T10:30:08;9.98;;;6.47;;
14007;SDS011;61651;45.508;12.232;2023-08-17T10:33:12;7.03;;;6.53;;
14007;SDS011;61651;45.508;12.232;2023-08-17T10:36:15;6.97;;;6.28;;
14007;SDS011;61651;45.508;12.232;2023-08-17T10:39:18;6.97;;;6.47;;
14007;SDS011;61651;45.508;12.232;2023-08-17T10:42:30;7.07;;;6.40;;
14007;SDS011;61651;45.508;12.232;2023-08-17T10:45:33;7.78;;;6.57;;
14007;SDS011;61651;45.508;12.232;2023-08-17T10:48:39;7.43;;;6.70;;
14007;SDS011;61651;45.508;12.232;2023-08-17T10:51:51;7.65;;;6.95;;
14007;SDS011;61651;45.508;12.232;2023-08-17T10:55:02;7.57;;;6.93;;
14007;SDS011;61651;45.508;12.232;2023-08-17T10:58:06;7.53;;;6.78;;
14007;SDS011;61651;45.508;12.232;2023-08-17T11:01:09;7.40;;;6.88;;
14007;SDS011;61651;45.508;12.232;2023-08-17T11:04:15;7.88;;;7.13;;
14007;SDS011;61651;45.508;12.232;2023-08-17T11:07:18;7.45;;;6.85;;
14007;SDS011;61651;45.508;12.232;2023-08-17T11:10:26;8.27;;;6.47;;
14007;SDS011;61651;45.508;12.232;2023-08-17T11:13:29;13.98;;;8.73;;
14007;SDS011;61651;45.508;12.232;2023-08-17T11:16:33;12.93;;;9.52;;
14007;SDS011;61651;45.508;12.232;2023-08-17T11:19:36;7.80;;;7.00;;
14007;SDS011;61651;45.508;12.232;2023-08-17T11:22:41;8.27;;;7.45;;
14007;SDS011;61651;45.508;12.232;2023-08-17T11:25:43;6.80;;;6.30;;
14007;SDS011;61651;45.508;12.232;2023-08-17T11:28:45;8.10;;;6.75;;
14007;SDS011;61651;45.508;12.232;2023-08-17T11:31:49;7.70;;;6.95;;
14007;SDS011;61651;45.508;12.232;2023-08-17T11:34:53;7.68;;;6.85;;
14007;SDS011;61651;45.508;12.232;2023-08-17T11:37:55;7.57;;;6.95;;
14007;SDS011;61651;45.508;12.232;2023-08-17T11:40:57;7.97;;;7.38;;
14007;SDS011;61651;45.508;12.232;2023-08-17T11:44:00;7.03;;;6.40;;
14007;SDS011;61651;45.508;12.232;2023-08-17T11:47:03;7.35;;;6.40;;
14007;SDS011;61651;45.508;12.232;2023-08-17T11:50:08;8.45;;;6.97;;
14007;SDS011;61651;45.508;12.232;2023-08-17T11:53:11;7.72;;;7.13;;
14007;SDS011;61651;45.508;12.232;2023-08-17T11:56:13;7.40;;;6.78;;
14007;SDS011;61651;45.508;12.232;2023-08-17T11:59:15;6.55;;;6.05;;
14007;SDS011;61651;45.508;12.232;2023-08-17T12:02:18;7.50;;;6.90;;
14007;SDS011;61651;45.508;12.232;2023-08-17T12:05:22;7.88;;;6.60;;
14007;SDS011;61651;45.508;12.232;2023-08-17T12:08:27;6.78;;;6.28;;
14007;SDS011;61651;45.508;12.232;2023-08-17T12:11:30;6.35;;;5.78;;
14007;SDS011;61651;45.508;12.232;2023-08-17T12:14:32;6.55;;;6.05;;
14007;SDS011;61651;45.508;12.232;2023-08-17T12:17:34;7.60;;;6.95;;
14007;SDS011;61651;45.508;12.232;2023-08-17T12:20:39;6.82;;;6.18;;
14007;SDS011;61651;45.508;12.232;2023-08-17T12:23:41;7.43;;;6.80;;
14007;SDS011;61651;45.508;12.232;2023-08-17T12:26:43;7.78;;;6.28;;
14007;SDS011;61651;45.508;12.232;2023-08-17T12:29:46;7.32;;;6.57;;
14007;SDS011;61651;45.508;12.232;2023-08-17T12:32:49;6.95;;;6.22;;
14007;SDS011;61651;45.508;12.232;2023-08-17T12:35:52;6.57;;;6.07;;
14007;SDS011;61651;45.508;12.232;2023-08-17T12:38:54;7.13;;;6.28;;
14007;SDS011;61651;45.508;12.232;2023-08-17T12:41:56;6.47;;;5.88;;
14007;SDS011;61651;45.508;12.232;2023-08-17T12:44:58;7.22;;;6.60;;
14007;SDS011;61651;45.508;12.232;2023-08-17T12:48:00;6.50;;;5.90;;
14007;SDS011;61651;45.508;12.232;2023-08-17T12:51:04;6.60;;;5.90;;
14007;SDS011;61651;45.508;12.232;2023-08-17T12:54:06;6.18;;;5.75;;
14007;SDS011;61651;45.508;12.232;2023-08-17T12:57:08;6.53;;;5.93;;
14007;SDS011;61651;45.508;12.232;2023-08-17T13:00:10;7.32;;;6.35;;
14007;SDS011;61651;45.508;12.232;2023-08-17T13:03:13;6.88;;;5.57;;
14007;SDS011;61651;45.508;12.232;2023-08-17T13:06:16;6.97;;;6.40;;
14007;SDS011;61651;45.508;12.232;2023-08-17T13:09:18;6.40;;;5.68;;
14007;SDS011;61651;45.508;12.232;2023-08-17T13:12:20;6.45;;;5.88;;
14007;SDS011;61651;45.508;12.232;2023-08-17T13:15:23;7.03;;;5.93;;
14007;SDS011;61651;45.508;12.232;2023-08-17T13:18:25;6.30;;;5.80;;
14007;SDS011;61651;45.508;12.232;2023-08-17T13:21:30;6.55;;;5.90;;
14007;SDS011;61651;45.508;12.232;2023-08-17T13:24:32;6.38;;;5.88;;
14007;SDS011;61651;45.508;12.232;2023-08-17T13:27:34;5.97;;;5.47;;
14007;SDS011;61651;45.508;12.232;2023-08-17T13:30:37;6.93;;;6.22;;
14007;SDS011;61651;45.508;12.232;2023-08-17T13:33:40;6.38;;;5.30;;
14007;SDS011;61651;45.508;12.232;2023-08-17T13:36:43;8.50;;;5.97;;
14007;SDS011;61651;45.508;12.232;2023-08-17T13:39:45;5.57;;;5.10;;
14007;SDS011;61651;45.508;12.232;2023-08-17T13:42:47;6.20;;;5.60;;
14007;SDS011;61651;45.508;12.232;2023-08-17T13:45:49;5.80;;;5.40;;
14007;SDS011;61651;45.508;12.232;2023-08-17T13:48:51;6.40;;;5.80;;
14007;SDS011;61651;45.508;12.232;2023-08-17T13:51:55;8.77;;;5.95;;
14007;SDS011;61651;45.508;12.232;2023-08-17T13:54:57;5.30;;;4.90;;
14007;SDS011;61651;45.508;12.232;2023-08-17T13:57:59;6.25;;;5.70;;
14007;SDS011;61651;45.508;12.232;2023-08-17T14:01:02;7.05;;;5.57;;
14007;SDS011;61651;45.508;12.232;2023-08-17T14:04:05;6.20;;;5.70;;
14007;SDS011;61651;45.508;12.232;2023-08-17T14:07:12;5.93;;;5.10;;
14007;SDS011;61651;45.508;12.232;2023-08-17T14:10:14;5.68;;;5.13;;
14007;SDS011;61651;45.508;12.232;2023-08-17T14:13:16;7.38;;;5.35;;
14007;SDS011;61651;45.508;12.232;2023-08-17T14:16:18;5.95;;;5.45;;
14007;SDS011;61651;45.508;12.232;2023-08-17T14:19:20;6.30;;;5.20;;
14007;SDS011;61651;45.508;12.232;2023-08-17T14:22:24;6.30;;;5.10;;
14007;SDS011;61651;45.508;12.232;2023-08-17T14:25:26;7.38;;;5.05;;
14007;SDS011;61651;45.508;12.232;2023-08-17T14:28:29;5.90;;;5.30;;
14007;SDS011;61651;45.508;12.232;2023-08-17T14:31:32;5.70;;;5.30;;
14007;SDS011;61651;45.508;12.232;2023-08-17T14:34:34;5.72;;;5.22;;
14007;SDS011;61651;45.508;12.232;2023-08-17T14:37:37;5.70;;;5.15;;
14007;SDS011;61651;45.508;12.232;2023-08-17T14:40:42;5.72;;;5.15;;
14007;SDS011;61651;45.508;12.232;2023-08-17T14:43:45;5.47;;;5.07;;
14007;SDS011;61651;45.508;12.232;2023-08-17T14:46:47;5.85;;;5.10;;
14007;SDS011;61651;45.508;12.232;2023-08-17T14:49:49;5.90;;;5.50;;
14007;SDS011;61651;45.508;12.232;2023-08-17T14:52:54;5.68;;;5.18;;
14007;SDS011;61651;45.508;12.232;2023-08-17T14:55:56;5.43;;;4.93;;
14007;SDS011;61651;45.508;12.232;2023-08-17T14:58:58;5.38;;;4.78;;
14007;SDS011;61651;45.508;12.232;2023-08-17T15:02:02;6.78;;;5.00;;
14007;SDS011;61651;45.508;12.232;2023-08-17T15:05:04;5.53;;;4.95;;
14007;SDS011;61651;45.508;12.232;2023-08-17T15:08:08;7.05;;;4.60;;
14007;SDS011;61651;45.508;12.232;2023-08-17T15:11:10;5.78;;;5.18;;
14007;SDS011;61651;45.508;12.232;2023-08-17T15:14:12;5.13;;;4.65;;
14007;SDS011;61651;45.508;12.232;2023-08-17T15:17:14;5.65;;;5.15;;
14007;SDS011;61651;45.508;12.232;2023-08-17T15:20:16;5.30;;;4.80;;
14007;SDS011;61651;45.508;12.232;2023-08-17T15:23:20;5.93;;;5.43;;
14007;SDS011;61651;45.508;12.232;2023-08-17T15:26:22;5.30;;;4.90;;
14007;SDS011;61651;45.508;12.232;2023-08-17T15:29:24;5.63;;;5.05;;
14007;SDS011;61651;45.508;12.232;2023-08-17T15:32:26;8.25;;;5.40;;
14007;SDS011;61651;45.508;12.232;2023-08-17T15:35:27;5.88;;;5.40;;
14007;SDS011;61651;45.508;12.232;2023-08-17T15:38:31;7.00;;;5.70;;
14007;SDS011;61651;45.508;12.232;2023-08-17T15:41:33;8.27;;;4.95;;
14007;SDS011;61651;45.508;12.232;2023-08-17T15:44:35;6.00;;;5.55;;
14007;SDS011;61651;45.508;12.232;2023-08-17T15:47:37;5.45;;;5.05;;
14007;SDS011;61651;45.508;12.232;2023-08-17T15:50:39;5.15;;;4.75;;
14007;SDS011;61651;45.508;12.232;2023-08-17T15:53:42;5.30;;;4.90;;
14007;SDS011;61651;45.508;12.232;2023-08-17T15:56:45;5.53;;;5.03;;
14007;SDS011;61651;45.508;12.232;2023-08-17T15:59:46;5.97;;;5.47;;
14007;SDS011;61651;45.508;12.232;2023-08-17T16:02:50;6.03;;;5.53;;
14007;SDS011;61651;45.508;12.232;2023-08-17T16:05:52;5.45;;;4.97;;
14007;SDS011;61651;45.508;12.232;2023-08-17T16:08:55;5.68;;;5.28;;
14007;SDS011;61651;45.508;12.232;2023-08-17T16:11:57;4.90;;;4.60;;
14007;SDS011;61651;45.508;12.232;2023-08-17T16:14:59;5.82;;;5.32;;
14007;SDS011;61651;45.508;12.232;2023-08-17T16:18:01;5.72;;;5.20;;
14007;SDS011;61651;45.508;12.232;2023-08-17T16:21:03;4.70;;;4.30;;
14007;SDS011;61651;45.508;12.232;2023-08-17T16:24:07;5.70;;;5.30;;
14007;SDS011;61651;45.508;12.232;2023-08-17T16:27:10;5.47;;;4.97;;
14007;SDS011;61651;45.508;12.232;2023-08-17T16:30:12;7.90;;;6.50;;
14007;SDS011;61651;45.508;12.232;2023-08-17T16:33:14;8.60;;;7.75;;
14007;SDS011;61651;45.508;12.232;2023-08-17T16:36:16;10.65;;;8.30;;
14007;SDS011;61651;45.508;12.232;2023-08-17T16:39:20;7.00;;;6.43;;
14007;SDS011;61651;45.508;12.232;2023-08-17T16:42:22;5.47;;;4.97;;
14007;SDS011;61651;45.508;12.232;2023-08-17T16:45:24;6.90;;;5.05;;
14007;SDS011;61651;45.508;12.232;2023-08-17T16:48:26;9.07;;;6.82;;
14007;SDS011;61651;45.508;12.232;2023-08-17T16:51:28;7.97;;;5.50;;
14007;SDS011;61651;45.508;12.232;2023-08-17T16:54:32;5.75;;;5.15;;
14007;SDS011;61651;45.508;12.232;2023-08-17T16:57:34;6.28;;;5.53;;
14007;SDS011;61651;45.508;12.232;2023-08-17T17:00:36;5.43;;;4.93;;
14007;SDS011;61651;45.508;12.232;2023-08-17T17:03:38;6.95;;;5.63;;
14007;SDS011;61651;45.508;12.232;2023-08-17T17:06:39;7.10;;;4.82;;
14007;SDS011;61651;45.508;12.232;2023-08-17T17:09:44;6.20;;;5.70;;
14007;SDS011;61651;45.508;12.232;2023-08-17T17:12:46;6.25;;;5.65;;
14007;SDS011;61651;45.508;12.232;2023-08-17T17:15:48;6.30;;;5.70;;
14007;SDS011;61651;45.508;12.232;2023-08-17T17:18:50;6.05;;;5.35;;
14007;SDS011;61651;45.508;12.232;2023-08-17T17:21:52;6.78;;;5.80;;
14007;SDS011;61651;45.508;12.232;2023-08-17T17:24:56;6.82;;;5.63;;
14007;SDS011;61651;45.508;12.232;2023-08-17T17:27:58;12.07;;;6.10;;
14007;SDS011;61651;45.508;12.232;2023-08-17T17:31:01;5.85;;;5.32;;
14007;SDS011;61651;45.508;12.232;2023-08-17T17:34:04;5.75;;;5.32;;
14007;SDS011;61651;45.508;12.232;2023-08-17T17:37:07;5.63;;;5.00;;
14007;SDS011;61651;45.508;12.232;2023-08-17T17:40:11;5.93;;;5.30;;
14007;SDS011;61651;45.508;12.232;2023-08-17T17:43:13;7.05;;;5.63;;
14007;SDS011;61651;45.508;12.232;2023-08-17T17:46:16;6.63;;;6.03;;
14007;SDS011;61651;45.508;12.232;2023-08-17T17:49:18;5.93;;;5.38;;
14007;SDS011;61651;45.508;12.232;2023-08-17T17:52:21;6.53;;;5.78;;
14007;SDS011;61651;45.508;12.232;2023-08-17T17:55:28;7.13;;;5.72;;
14007;SDS011;61651;45.508;12.232;2023-08-17T17:58:30;6.90;;;5.90;;
14007;SDS011;61651;45.508;12.232;2023-08-17T18:01:32;6.28;;;5.65;;